
Distance (Route):
Temperature : 0°C
Humidity : 0%
Pressure : 0hPa| Receiver | Date | Latitude | Longitude | Direction | Speed | Altitude | Climb | Temperature | Humidity | Pressure | Voltage | Killtimer | Uptime | BKT | XDATA |
|---|---|---|---|---|---|---|---|---|---|---|---|---|---|---|---|
| RDZBGO | 2026-08-31 01:58:37 | 41.90208 | 9.47325 | 108° | 20km/h | 3259m | -11.4m/s | 0°C | 0% | 0hPa | 0V | 00:00:00 | 00:00:00 | 00:00:00 | |
| RDZBGO | 2026-08-31 01:58:16 | 41.90230 | 9.47203 | 105° | 18km/h | 3495m | -8.7m/s | 0°C | 0% | 0hPa | 0V | 00:00:00 | 00:00:00 | 00:00:00 | |
| RDZBGO | 2026-08-31 01:57:55 | 41.90258 | 9.47025 | 102° | 33km/h | 3744m | -11.7m/s | 0°C | 0% | 0hPa | 0V | 00:00:00 | 00:00:00 | 00:00:00 | |
| RDZBGO | 2026-08-31 01:57:35 | 41.90306 | 9.46809 | 109° | 38km/h | 3977m | -10.6m/s | 0°C | 0% | 0hPa | 0V | 00:00:00 | 00:00:00 | 00:00:00 | |
| RDZBGO | 2026-08-31 01:57:14 | 41.90364 | 9.46516 | 110° | 40km/h | 4213m | -10.5m/s | 0°C | 0% | 0hPa | 0V | 00:00:00 | 00:00:00 | 00:00:00 | |
| RDZBGO | 2026-08-31 01:56:53 | 41.90418 | 9.46230 | 106° | 40km/h | 4443m | -11.3m/s | 0°C | 0% | 0hPa | 0V | 00:00:00 | 00:00:00 | 00:00:00 | |
| RDZBGO | 2026-08-31 01:56:32 | 41.90467 | 9.45962 | 105° | 38km/h | 4669m | -11.8m/s | 0°C | 0% | 0hPa | 0V | 00:00:00 | 00:00:00 | 00:00:00 | |
| RDZBGO | 2026-08-31 01:56:12 | 41.90516 | 9.45649 | 97° | 53km/h | 4869m | -8.6m/s | 0°C | 0% | 0hPa | 0V | 00:00:00 | 00:00:00 | 00:00:00 | |
| RDZBGO | 2026-08-31 01:55:51 | 41.90550 | 9.45263 | 98° | 51km/h | 5090m | -11.5m/s | 0°C | 0% | 0hPa | 0V | 00:00:00 | 00:00:00 | 00:00:00 | |
| RDZBGO | 2026-08-31 01:55:30 | 41.90603 | 9.44854 | 104° | 64km/h | 5314m | -11.4m/s | 0°C | 0% | 0hPa | 0V | 00:00:00 | 00:00:00 | 00:00:00 | |
| RDZBGO | 2026-08-31 01:55:10 | 41.90693 | 9.44429 | 109° | 68km/h | 5545m | -11.7m/s | 0°C | 0% | 0hPa | 0V | 00:00:00 | 00:00:00 | 00:00:00 | |
| RDZBGO | 2026-08-31 01:54:28 | 41.90839 | 9.43538 | 106° | 69km/h | 6046m | -11.5m/s | 0°C | 0% | 0hPa | 0V | 00:00:00 | 00:00:00 | 00:00:00 | |
| RDZBGO | 2026-08-31 01:54:07 | 41.90904 | 9.43073 | 95° | 66km/h | 6293m | -12.4m/s | 0°C | 0% | 0hPa | 0V | 00:00:00 | 00:00:00 | 00:00:00 | |
| RDZBGO | 2026-08-31 01:53:46 | 41.90936 | 9.42620 | 95° | 68km/h | 6546m | -13.1m/s | 0°C | 0% | 0hPa | 0V | 00:00:00 | 00:00:00 | 00:00:00 | |
| RDZBGO | 2026-08-31 01:53:25 | 41.90961 | 9.42117 | 94° | 75km/h | 6810m | -12.5m/s | 0°C | 0% | 0hPa | 0V | 00:00:00 | 00:00:00 | 00:00:00 | |
| RDZBGO | 2026-08-31 01:53:05 | 41.90992 | 9.41625 | 97° | 71km/h | 7050m | -11.5m/s | 0°C | 0% | 0hPa | 0V | 00:00:00 | 00:00:00 | 00:00:00 | |
| RDZBGO | 2026-08-31 01:52:44 | 41.91037 | 9.41117 | 95° | 69km/h | 7316m | -13.3m/s | 0°C | 0% | 0hPa | 0V | 00:00:00 | 00:00:00 | 00:00:00 | |
| RDZBGO | 2026-08-31 01:52:23 | 41.91073 | 9.40650 | 97° | 58km/h | 7593m | -13.2m/s | 0°C | 0% | 0hPa | 0V | 00:00:00 | 00:00:00 | 00:00:00 | |
| RDZBGO | 2026-08-31 01:52:03 | 41.91082 | 9.40273 | 93° | 51km/h | 7863m | -14.0m/s | 0°C | 0% | 0hPa | 0V | 00:00:00 | 00:00:00 | 00:00:00 | |
| RDZBGO | 2026-08-31 01:51:43 | 41.91098 | 9.39898 | 96° | 53km/h | 8138m | -14.0m/s | 0°C | 0% | 0hPa | 0V | 00:00:00 | 00:00:00 | 00:00:00 | |
| RDZBGO | 2026-08-31 01:51:22 | 41.91134 | 9.39489 | 100° | 57km/h | 8434m | -13.7m/s | 0°C | 0% | 0hPa | 0V | 00:00:00 | 00:00:00 | 00:00:00 | |
| RDZBGO | 2026-08-31 01:51:01 | 41.91184 | 9.39086 | 100° | 57km/h | 8718m | -13.2m/s | 0°C | 0% | 0hPa | 0V | 00:00:00 | 00:00:00 | 00:00:00 | |
| RDZBGO | 2026-08-31 01:50:41 | 41.91243 | 9.38719 | 105° | 55km/h | 8997m | -14.7m/s | 0°C | 0% | 0hPa | 0V | 00:00:00 | 00:00:00 | 00:00:00 | |
| RDZBGO | 2026-08-31 01:50:21 | 41.91294 | 9.38365 | 98° | 53km/h | 9275m | -13.5m/s | 0°C | 0% | 0hPa | 0V | 00:00:00 | 00:00:00 | 00:00:00 | |
| RDZBGO | 2026-08-31 01:50:00 | 41.91315 | 9.38031 | 95° | 47km/h | 9569m | -13.7m/s | 0°C | 0% | 0hPa | 0V | 00:00:00 | 00:00:00 | 00:00:00 | |
| RDZBGO | 2026-08-31 01:49:40 | 41.91334 | 9.37722 | 93° | 47km/h | 9846m | -14.1m/s | 0°C | 0% | 0hPa | 0V | 00:00:00 | 00:00:00 | 00:00:00 | |
| RDZBGO | 2026-08-31 01:49:19 | 41.91360 | 9.37406 | 96° | 38km/h | 10134m | -13.9m/s | 0°C | 0% | 0hPa | 0V | 00:00:00 | 00:00:00 | 00:00:00 | |
| RDZBGO | 2026-08-31 01:48:58 | 41.91382 | 9.37122 | 97° | 38km/h | 10426m | -14.1m/s | 0°C | 0% | 0hPa | 0V | 00:00:00 | 00:00:00 | 00:00:00 | |
| RDZBGO | 2026-08-31 01:48:38 | 41.91408 | 9.36841 | 96° | 46km/h | 10720m | -15.4m/s | 0°C | 0% | 0hPa | 0V | 00:00:00 | 00:00:00 | 00:00:00 | |
| RDZBGO | 2026-08-31 01:48:17 | 41.91438 | 9.36505 | 99° | 51km/h | 11033m | -14.8m/s | 0°C | 0% | 0hPa | 0V | 00:00:00 | 00:00:00 | 00:00:00 | |
| RDZBGO | 2026-08-31 01:47:57 | 41.91497 | 9.36156 | 110° | 57km/h | 11330m | -14.0m/s | 0°C | 0% | 0hPa | 0V | 00:00:00 | 00:00:00 | 00:00:00 | |
| RDZBGO | 2026-08-31 01:47:37 | 41.91571 | 9.35799 | 103° | 55km/h | 11630m | -15.8m/s | 0°C | 0% | 0hPa | 0V | 00:00:00 | 00:00:00 | 00:00:00 | |
| RDZBGO | 2026-08-31 01:47:16 | 41.91641 | 9.35406 | 106° | 62km/h | 11955m | -14.7m/s | 0°C | 0% | 0hPa | 0V | 00:00:00 | 00:00:00 | 00:00:00 | |
| RDZBGO | 2026-08-31 01:46:56 | 41.91722 | 9.34994 | 107° | 66km/h | 12259m | -16.5m/s | 0°C | 0% | 0hPa | 0V | 00:00:00 | 00:00:00 | 00:00:00 | |
| RDZBGO | 2026-08-31 01:46:35 | 41.91813 | 9.34557 | 107° | 64km/h | 12582m | -14.9m/s | 0°C | 0% | 0hPa | 0V | 00:00:00 | 00:00:00 | 00:00:00 | |
| RDZBGO | 2026-08-31 01:46:14 | 41.91866 | 9.34106 | 100° | 62km/h | 12917m | -16.0m/s | 0°C | 0% | 0hPa | 0V | 00:00:00 | 00:00:00 | 00:00:00 | |
| RDZBGO | 2026-08-31 01:45:53 | 41.91913 | 9.33663 | 99° | 66km/h | 13272m | -17.6m/s | 0°C | 0% | 0hPa | 0V | 00:00:00 | 00:00:00 | 00:00:00 | |
| RDZBGO | 2026-08-31 01:45:33 | 41.91962 | 9.33237 | 97° | 57km/h | 13617m | -18.1m/s | 0°C | 0% | 0hPa | 0V | 00:00:00 | 00:00:00 | 00:00:00 | |
| RDZBGO | 2026-08-31 01:45:13 | 41.91975 | 9.32869 | 90° | 58km/h | 13966m | -18.4m/s | 0°C | 0% | 0hPa | 0V | 00:00:00 | 00:00:00 | 00:00:00 | |
| RDZBGO | 2026-08-31 01:44:52 | 41.91934 | 9.32501 | 78° | 53km/h | 14344m | -17.3m/s | 0°C | 0% | 0hPa | 0V | 00:00:00 | 00:00:00 | 00:00:00 | |
| RDZBGO | 2026-08-31 01:44:33 | 41.91924 | 9.32058 | 98° | 51km/h | 14704m | -17.9m/s | 0°C | 0% | 0hPa | 0V | 00:00:00 | 00:00:00 | 00:00:00 | |
| RDZBGO | 2026-08-31 01:44:10 | 41.91902 | 9.31689 | 84° | 55km/h | 15092m | -18.2m/s | 0°C | 0% | 0hPa | 0V | 00:00:00 | 00:00:00 | 00:00:00 | |
| RDZBGO | 2026-08-31 01:43:49 | 41.91846 | 9.31337 | 79° | 47km/h | 15500m | -20.9m/s | 0°C | 0% | 0hPa | 0V | 00:00:00 | 00:00:00 | 00:00:00 | |
| RDZBGO | 2026-08-31 01:43:20 | 41.91718 | 9.30953 | 83° | 47km/h | 16064m | -19.5m/s | 0°C | 0% | 0hPa | 0V | 00:00:00 | 00:00:00 | 00:00:00 | |
| RDZBGO | 2026-08-31 01:42:57 | 41.91701 | 9.30654 | 63° | 37km/h | 16519m | -20.4m/s | 0°C | 0% | 0hPa | 0V | 00:00:00 | 00:00:00 | 00:00:00 | |
| RDZBGO | 2026-08-31 01:42:31 | 41.91578 | 9.30231 | 80° | 58km/h | 17063m | -21.4m/s | 0°C | 0% | 0hPa | 0V | 00:00:00 | 00:00:00 | 00:00:00 | |
| RDZBGO | 2026-08-31 01:41:49 | 41.91550 | 9.29677 | 88° | 7km/h | 17911m | -20.7m/s | 0°C | 0% | 0hPa | 0V | 00:00:00 | 00:00:00 | 00:00:00 | |
| RDZBGO | 2026-08-31 01:41:28 | 41.91532 | 9.29572 | 67° | 16km/h | 18382m | -21.2m/s | 0°C | 0% | 0hPa | 0V | 00:00:00 | 00:00:00 | 00:00:00 | |
| RDZBGO | 2026-08-31 01:41:08 | 41.91467 | 9.29451 | 28° | 27km/h | 18816m | -22.3m/s | 0°C | 0% | 0hPa | 0V | 00:00:00 | 00:00:00 | 00:00:00 | |
| IW2NTF | 2026-08-31 01:40:47 | 41.91424 | 9.29253 | 126° | 15km/h | 19342m | -21.1m/s | 0°C | 0% | 0hPa | 0V | 00:00:00 | 00:00:00 | 00:00:00 | |
| RDZBGO | 2026-08-31 01:40:26 | 41.91424 | 9.29210 | 62° | 15km/h | 19699m | -20.1m/s | 0°C | 0% | 0hPa | 0V | 00:00:00 | 00:00:00 | 00:00:00 | |
| IW2NTF | 2026-08-31 01:40:24 | 41.91414 | 9.29187 | 58° | 16km/h | 19803m | -21.8m/s | 0°C | 0% | 0hPa | 0V | 00:00:00 | 00:00:00 | 00:00:00 | |
| RDZBGO | 2026-08-31 01:40:06 | 41.91394 | 9.29140 | 65° | 9km/h | 20153m | -22.0m/s | 0°C | 0% | 0hPa | 0V | 00:00:00 | 00:00:00 | 00:00:00 | |
| RDZBGO | 2026-08-31 01:39:45 | 41.91391 | 9.29134 | 340° | 11km/h | 20642m | -23.4m/s | 0°C | 0% | 0hPa | 0V | 00:00:00 | 00:00:00 | 00:00:00 | |
| IW2NTF | 2026-08-31 01:39:42 | 41.91386 | 9.29129 | 153° | 7km/h | 20853m | -23.9m/s | 0°C | 0% | 0hPa | 0V | 00:00:00 | 00:00:00 | 00:00:00 | |
| IW2NTF | 2026-08-31 01:39:24 | 41.91382 | 9.29145 | 293° | 9km/h | 21224m | -25.6m/s | 0°C | 0% | 0hPa | 0V | 00:00:00 | 00:00:00 | 00:00:00 | |
| RDZBGO | 2026-08-31 01:39:24 | 41.91385 | 9.29136 | 291° | 9km/h | 21149m | -26.8m/s | 0°C | 0% | 0hPa | 0V | 00:00:00 | 00:00:00 | 00:00:00 | |
| RDZBGO | 2026-08-31 01:39:03 | 41.91304 | 9.29240 | 344° | 33km/h | 21674m | -23.2m/s | 0°C | 0% | 0hPa | 0V | 00:00:00 | 00:00:00 | 00:00:00 | |
| IW2NTF | 2026-08-31 01:39:00 | 41.91242 | 9.29235 | 27° | 24km/h | 21899m | -24.9m/s | 0°C | 0% | 0hPa | 0V | 00:00:00 | 00:00:00 | 00:00:00 | |
| RDZBGO | 2026-08-31 01:38:42 | 41.91202 | 9.29182 | 66° | 11km/h | 22190m | -28.2m/s | 0°C | 0% | 0hPa | 0V | 00:00:00 | 00:00:00 | 00:00:00 | |
| IW2NTF | 2026-08-31 01:38:32 | 41.91193 | 9.29185 | 285° | 7km/h | 22460m | -25.4m/s | 0°C | 0% | 0hPa | 0V | 00:00:00 | 00:00:00 | 00:00:00 | |
| RDZBGO | 2026-08-31 01:38:21 | 41.91210 | 9.29211 | 227° | 13km/h | 22745m | -27.4m/s | 0°C | 0% | 0hPa | 0V | 00:00:00 | 00:00:00 | 00:00:00 | |
| IW2NTF | 2026-08-31 01:38:02 | 41.91189 | 9.29347 | 323° | 20km/h | 23324m | -25.3m/s | 0°C | 0% | 0hPa | 0V | 00:00:00 | 00:00:00 | 00:00:00 | |
| RDZBGO | 2026-08-31 01:38:00 | 41.91193 | 9.29343 | 324° | 20km/h | 23299m | -24.8m/s | 0°C | 0% | 0hPa | 0V | 00:00:00 | 00:00:00 | 00:00:00 | |
| RDZBGO | 2026-08-31 01:37:40 | 41.91187 | 9.29412 | 249° | 18km/h | 23878m | -28.9m/s | 0°C | 0% | 0hPa | 0V | 00:00:00 | 00:00:00 | 00:00:00 | |
| IW2NTF | 2026-08-31 01:37:20 | 41.91189 | 9.29548 | 249° | 20km/h | 24494m | -29.5m/s | 0°C | 0% | 0hPa | 0V | 00:00:00 | 00:00:00 | 00:00:00 | |
| RDZBGO | 2026-08-31 01:37:19 | 41.91186 | 9.29536 | 249° | 16km/h | 24436m | -27.0m/s | 0°C | 0% | 0hPa | 0V | 00:00:00 | 00:00:00 | 00:00:00 | |
| RDZBGO | 2026-08-31 01:36:58 | 41.91181 | 9.29652 | 290° | 24km/h | 24997m | -27.5m/s | 0°C | 0% | 0hPa | 0V | 00:00:00 | 00:00:00 | 00:00:00 | |
| IW2NTF | 2026-08-31 01:36:40 | 41.91123 | 9.29803 | 305° | 20km/h | 25685m | -30.8m/s | 0°C | 0% | 0hPa | 0V | 00:00:00 | 00:00:00 | 00:00:00 | |
| RDZBGO | 2026-08-31 01:36:38 | 41.91135 | 9.29778 | 300° | 24km/h | 25572m | -27.2m/s | 0°C | 0% | 0hPa | 0V | 00:00:00 | 00:00:00 | 00:00:00 | |
| RDZBGO | 2026-08-31 01:36:18 | 41.91078 | 9.29866 | 325° | 11km/h | 26165m | -28.5m/s | 0°C | 0% | 0hPa | 0V | 00:00:00 | 00:00:00 | 00:00:00 | |
| RDZBGO | 2026-08-31 01:35:57 | 41.91015 | 9.29932 | 345° | 33km/h | 26800m | -28.9m/s | 0°C | 0% | 0hPa | 0V | 00:00:00 | 00:00:00 | 00:00:00 | |
| RDZBGO | 2026-08-31 01:35:36 | 41.90960 | 9.29929 | 343° | 7km/h | 27462m | -32.3m/s | 0°C | 0% | 0hPa | 0V | 00:00:00 | 00:00:00 | 00:00:00 | |
| AUTORXJP | 2026-08-31 01:35:22 | 41.90885 | 9.29918 | 37° | 16km/h | 27942m | -33.8m/s | -47.6°C | 0.0% | 14.4hPa | 0V | 00:00:00 | 00:00:00 | 00:00:00 | |
| RDZBGO | 2026-08-31 01:35:15 | 41.90873 | 9.29888 | 79° | 13km/h | 28133m | -33.0m/s | 0°C | 0% | 0hPa | 0V | 00:00:00 | 00:00:00 | 00:00:00 | |
| RDZBGO | 2026-08-31 01:34:55 | 41.90905 | 9.29848 | 186° | 16km/h | 28808m | -34.2m/s | 0°C | 0% | 0hPa | 0V | 00:00:00 | 00:00:00 | 00:00:00 | |
| RDZBGO | 2026-08-31 01:34:33 | 41.90949 | 9.29901 | 268° | 18km/h | 29598m | -37.9m/s | 0°C | 0% | 0hPa | 0V | 00:00:00 | 00:00:00 | 00:00:00 | |
| RDZBGO | 2026-08-31 01:34:03 | 41.90907 | 9.30029 | 273° | 22km/h | 30732m | -34.6m/s | 0°C | 0% | 0hPa | 0V | 00:00:00 | 00:00:00 | 00:00:00 | |
| RDZBGO | 2026-08-31 01:33:17 | 41.90670 | 9.30122 | 330° | 24km/h | 32666m | -44.1m/s | 0°C | 0% | 0hPa | 0V | 00:00:00 | 00:00:00 | 00:00:00 | |
| RDZBGO | 2026-08-31 01:32:37 | 41.90533 | 9.30225 | 170° | 11km/h | 34675m | -56.8m/s | 0°C | 0% | 0hPa | 0V | 00:00:00 | 00:00:00 | 00:00:00 | |
| RDZBGO | 2026-08-31 01:32:17 | 41.90592 | 9.30294 | 261° | 26km/h | 35784m | -58.8m/s | 0°C | 0% | 0hPa | 0V | 00:00:00 | 00:00:00 | 00:00:00 | |
| RDZBGO | 2026-08-31 01:31:56 | 41.90532 | 9.30508 | 306° | 31km/h | 36739m | -26.1m/s | 0°C | 0% | 0hPa | 0V | 00:00:00 | 00:00:00 | 00:00:00 | |
| RDZBGO | 2026-08-31 01:31:35 | 41.90362 | 9.30808 | 306° | 57km/h | 36987m | 4.2m/s | 0°C | 0% | 0hPa | 0V | 00:00:00 | 00:00:00 | 00:00:00 | |
| RDZBGO | 2026-08-31 01:31:14 | 41.90190 | 9.31132 | 310° | 53km/h | 36902m | 4.1m/s | 0°C | 0% | 0hPa | 0V | 00:00:00 | 00:00:00 | 00:00:00 | |
| IW2NTF | 2026-08-31 01:30:55 | 41.90022 | 9.31425 | 306° | 42km/h | 36801m | 4.5m/s | 0°C | 0% | 0hPa | 0V | 00:00:00 | 00:00:00 | 00:00:00 | |
| RDZBGO | 2026-08-31 01:30:54 | 41.90041 | 9.31390 | 307° | 44km/h | 36815m | 4.4m/s | 0°C | 0% | 0hPa | 0V | 00:00:00 | 00:00:00 | 00:00:00 | |
| RDZBGO | 2026-08-31 01:30:34 | 41.89930 | 9.31611 | 306° | 40km/h | 36725m | 4.5m/s | 0°C | 0% | 0hPa | 0V | 00:00:00 | 00:00:00 | 00:00:00 | |
| RDZBGO | 2026-08-31 01:30:13 | 41.89804 | 9.31829 | 306° | 40km/h | 36632m | 4.6m/s | 0°C | 0% | 0hPa | 0V | 00:00:00 | 00:00:00 | 00:00:00 | |
| RDZBGO | 2026-08-31 01:29:52 | 41.89696 | 9.32082 | 293° | 42km/h | 36537m | 4.7m/s | 0°C | 0% | 0hPa | 0V | 00:00:00 | 00:00:00 | 00:00:00 | |
| RDZBGO | 2026-08-31 01:29:32 | 41.89632 | 9.32329 | 283° | 35km/h | 36444m | 4.6m/s | 0°C | 0% | 0hPa | 0V | 00:00:00 | 00:00:00 | 00:00:00 | |
| RDZBGO | 2026-08-31 01:29:11 | 41.89616 | 9.32537 | 272° | 31km/h | 36346m | 4.7m/s | 0°C | 0% | 0hPa | 0V | 00:00:00 | 00:00:00 | 00:00:00 | |
| RDZBGO | 2026-08-31 01:28:51 | 41.89612 | 9.32730 | 266° | 26km/h | 36256m | 4.7m/s | 0°C | 0% | 0hPa | 0V | 00:00:00 | 00:00:00 | 00:00:00 | |
| RDZBGO | 2026-08-31 01:28:31 | 41.89641 | 9.32880 | 260° | 24km/h | 36162m | 4.7m/s | 0°C | 0% | 0hPa | 0V | 00:00:00 | 00:00:00 | 00:00:00 | |
| RDZBGO | 2026-08-31 01:28:10 | 41.89702 | 9.33043 | 240° | 24km/h | 36061m | 4.5m/s | 0°C | 0% | 0hPa | 0V | 00:00:00 | 00:00:00 | 00:00:00 | |
| RDZBGO | 2026-08-31 01:27:49 | 41.89777 | 9.33220 | 233° | 29km/h | 35959m | 4.9m/s | 0°C | 0% | 0hPa | 0V | 00:00:00 | 00:00:00 | 00:00:00 | |
| RDZBGO | 2026-08-31 01:27:29 | 41.89854 | 9.33376 | 235° | 24km/h | 35859m | 5.1m/s | 0°C | 0% | 0hPa | 0V | 00:00:00 | 00:00:00 | 00:00:00 | |
| RDZBGO | 2026-08-31 01:27:09 | 41.89917 | 9.33508 | 242° | 18km/h | 35757m | 5.2m/s | 0°C | 0% | 0hPa | 0V | 00:00:00 | 00:00:00 | 00:00:00 | |
| RDZBGO | 2026-08-31 01:26:49 | 41.89949 | 9.33627 | 269° | 20km/h | 35656m | 5.0m/s | 0°C | 0% | 0hPa | 0V | 00:00:00 | 00:00:00 | 00:00:00 | |
| RDZBGO | 2026-08-31 01:26:28 | 41.89984 | 9.33778 | 247° | 26km/h | 35550m | 5.0m/s | 0°C | 0% | 0hPa | 0V | 00:00:00 | 00:00:00 | 00:00:00 | |
| RDZBGO | 2026-08-31 01:26:07 | 41.90049 | 9.33890 | 229° | 13km/h | 35443m | 5.0m/s | 0°C | 0% | 0hPa | 0V | 00:00:00 | 00:00:00 | 00:00:00 | |
| RDZBGO | 2026-08-31 01:25:46 | 41.90083 | 9.33973 | 250° | 11km/h | 35336m | 5.0m/s | 0°C | 0% | 0hPa | 0V | 00:00:00 | 00:00:00 | 00:00:00 | |
| RDZBGO | 2026-08-31 01:25:25 | 41.90129 | 9.34014 | 172° | 13km/h | 35235m | 4.8m/s | 0°C | 0% | 0hPa | 0V | 00:00:00 | 00:00:00 | 00:00:00 | |
| RDZBGO | 2026-08-31 01:25:05 | 41.90209 | 9.34010 | 184° | 16km/h | 35142m | 4.8m/s | 0°C | 0% | 0hPa | 0V | 00:00:00 | 00:00:00 | 00:00:00 | |
| RDZBGO | 2026-08-31 01:24:44 | 41.90319 | 9.33994 | 166° | 26km/h | 35046m | 4.6m/s | 0°C | 0% | 0hPa | 0V | 00:00:00 | 00:00:00 | 00:00:00 | |
| RDZBGO | 2026-08-31 01:24:24 | 41.90409 | 9.33937 | 130° | 16km/h | 34956m | 4.6m/s | 0°C | 0% | 0hPa | 0V | 00:00:00 | 00:00:00 | 00:00:00 | |
| RDZBGO | 2026-08-31 01:24:03 | 41.90463 | 9.33852 | 118° | 13km/h | 34856m | 4.5m/s | 0°C | 0% | 0hPa | 0V | 00:00:00 | 00:00:00 | 00:00:00 | |
| RDZBGO | 2026-08-31 01:23:42 | 41.90472 | 9.33773 | 107° | 9km/h | 34761m | 4.4m/s | 0°C | 0% | 0hPa | 0V | 00:00:00 | 00:00:00 | 00:00:00 | |
| RDZBGO | 2026-08-31 01:23:22 | 41.90451 | 9.33752 | 345° | 13km/h | 34674m | 4.4m/s | 0°C | 0% | 0hPa | 0V | 00:00:00 | 00:00:00 | 00:00:00 | |
| RDZBGO | 2026-08-31 01:23:02 | 41.90412 | 9.33787 | 341° | 5km/h | 34582m | 4.3m/s | 0°C | 0% | 0hPa | 0V | 00:00:00 | 00:00:00 | 00:00:00 | |
| RDZBGO | 2026-08-31 01:22:40 | 41.90361 | 9.33823 | 309° | 16km/h | 34491m | 4.4m/s | 0°C | 0% | 0hPa | 0V | 00:00:00 | 00:00:00 | 00:00:00 | |
| RDZBGO | 2026-08-31 01:22:20 | 41.90345 | 9.33906 | 250° | 11km/h | 34404m | 4.3m/s | 0°C | 0% | 0hPa | 0V | 00:00:00 | 00:00:00 | 00:00:00 | |
| RDZBGO | 2026-08-31 01:21:59 | 41.90354 | 9.33972 | 276° | 11km/h | 34310m | 4.9m/s | 0°C | 0% | 0hPa | 0V | 00:00:00 | 00:00:00 | 00:00:00 | |
| RDZBGO | 2026-08-31 01:21:38 | 41.90355 | 9.34011 | 180° | 4km/h | 34211m | 4.6m/s | 0°C | 0% | 0hPa | 0V | 00:00:00 | 00:00:00 | 00:00:00 | |
| RDZBGO | 2026-08-31 01:21:18 | 41.90342 | 9.34013 | 349° | 7km/h | 34114m | 5.0m/s | 0°C | 0% | 0hPa | 0V | 00:00:00 | 00:00:00 | 00:00:00 | |
| RDZBGO | 2026-08-31 01:20:58 | 41.90319 | 9.34008 | 70° | 7km/h | 34013m | 4.9m/s | 0°C | 0% | 0hPa | 0V | 00:00:00 | 00:00:00 | 00:00:00 | |
| RDZBGO | 2026-08-31 01:20:17 | 41.90122 | 9.33956 | 4° | 20km/h | 33803m | 5.1m/s | 0°C | 0% | 0hPa | 0V | 00:00:00 | 00:00:00 | 00:00:00 | |
| RDZBGO | 2026-08-31 01:19:57 | 41.89990 | 9.33975 | 346° | 31km/h | 33698m | 5.2m/s | 0°C | 0% | 0hPa | 0V | 00:00:00 | 00:00:00 | 00:00:00 | |
| RDZBGO | 2026-08-31 01:19:37 | 41.89870 | 9.34045 | 336° | 24km/h | 33592m | 5.3m/s | 0°C | 0% | 0hPa | 0V | 00:00:00 | 00:00:00 | 00:00:00 | |
| RDZBGO | 2026-08-31 01:19:17 | 41.89714 | 9.34153 | 323° | 42km/h | 33487m | 5.3m/s | 0°C | 0% | 0hPa | 0V | 00:00:00 | 00:00:00 | 00:00:00 | |
| RDZBGO | 2026-08-31 01:18:56 | 41.89550 | 9.34294 | 340° | 42km/h | 33377m | 5.2m/s | 0°C | 0% | 0hPa | 0V | 00:00:00 | 00:00:00 | 00:00:00 | |
| RDZBGO | 2026-08-31 01:18:36 | 41.89361 | 9.34434 | 326° | 40km/h | 33276m | 5.0m/s | 0°C | 0% | 0hPa | 0V | 00:00:00 | 00:00:00 | 00:00:00 | |
| RDZBGO | 2026-08-31 01:18:15 | 41.89179 | 9.34560 | 326° | 40km/h | 33171m | 4.9m/s | 0°C | 0% | 0hPa | 0V | 00:00:00 | 00:00:00 | 00:00:00 | |
| RDZBGO | 2026-08-31 01:17:55 | 41.89058 | 9.34660 | 352° | 24km/h | 33072m | 5.2m/s | 0°C | 0% | 0hPa | 0V | 00:00:00 | 00:00:00 | 00:00:00 | |
| RDZBGO | 2026-08-31 01:17:35 | 41.88949 | 9.34733 | 319° | 16km/h | 32961m | 5.2m/s | 0°C | 0% | 0hPa | 0V | 00:00:00 | 00:00:00 | 00:00:00 | |
| RDZBGO | 2026-08-31 01:17:13 | 41.88869 | 9.34804 | 327° | 22km/h | 32852m | 4.7m/s | 0°C | 0% | 0hPa | 0V | 00:00:00 | 00:00:00 | 00:00:00 | |
| RDZBGO | 2026-08-31 01:16:53 | 41.88837 | 9.34870 | 328° | 15km/h | 32748m | 5.8m/s | 0°C | 0% | 0hPa | 0V | 00:00:00 | 00:00:00 | 00:00:00 | |
| RDZBGO | 2026-08-31 01:16:32 | 41.88781 | 9.34983 | 336° | 18km/h | 32638m | 5.5m/s | 0°C | 0% | 0hPa | 0V | 00:00:00 | 00:00:00 | 00:00:00 | |
| RDZBGO | 2026-08-31 01:16:11 | 41.88726 | 9.35031 | 345° | 15km/h | 32528m | 4.9m/s | 0°C | 0% | 0hPa | 0V | 00:00:00 | 00:00:00 | 00:00:00 | |
| RDZBGO | 2026-08-31 01:15:51 | 41.88675 | 9.35104 | 343° | 16km/h | 32424m | 5.5m/s | 0°C | 0% | 0hPa | 0V | 00:00:00 | 00:00:00 | 00:00:00 | |
| RDZBGO | 2026-08-31 01:15:30 | 41.88597 | 9.35203 | 284° | 16km/h | 32314m | 4.5m/s | 0°C | 0% | 0hPa | 0V | 00:00:00 | 00:00:00 | 00:00:00 | |
| RDZBGO | 2026-08-31 01:15:09 | 41.88530 | 9.35270 | 306° | 16km/h | 32208m | 5.0m/s | 0°C | 0% | 0hPa | 0V | 00:00:00 | 00:00:00 | 00:00:00 | |
| RDZBGO | 2026-08-31 01:14:49 | 41.88477 | 9.35277 | 15° | 20km/h | 32107m | 5.2m/s | 0°C | 0% | 0hPa | 0V | 00:00:00 | 00:00:00 | 00:00:00 | |
| RDZBGO | 2026-08-31 01:14:28 | 41.88406 | 9.35251 | 26° | 16km/h | 32002m | 5.1m/s | 0°C | 0% | 0hPa | 0V | 00:00:00 | 00:00:00 | 00:00:00 | |
| RDZBGO | 2026-08-31 01:14:08 | 41.88362 | 9.35285 | 255° | 5km/h | 31901m | 4.6m/s | 0°C | 0% | 0hPa | 0V | 00:00:00 | 00:00:00 | 00:00:00 | |
| RDZBGO | 2026-08-31 01:13:47 | 41.88319 | 9.35279 | 43° | 16km/h | 31796m | 5.4m/s | 0°C | 0% | 0hPa | 0V | 00:00:00 | 00:00:00 | 00:00:00 | |
| RDZBGO | 2026-08-31 01:13:27 | 41.88260 | 9.35187 | 25° | 27km/h | 31696m | 5.0m/s | 0°C | 0% | 0hPa | 0V | 00:00:00 | 00:00:00 | 00:00:00 | |
| RDZBGO | 2026-08-31 01:13:06 | 41.88137 | 9.35059 | 28° | 35km/h | 31592m | 4.8m/s | 0°C | 0% | 0hPa | 0V | 00:00:00 | 00:00:00 | 00:00:00 | |
| RDZBGO | 2026-08-31 01:12:46 | 41.88007 | 9.35009 | 33° | 27km/h | 31491m | 4.8m/s | 0°C | 0% | 0hPa | 0V | 00:00:00 | 00:00:00 | 00:00:00 | |
| RDZBGO | 2026-08-31 01:12:25 | 41.87859 | 9.35008 | 11° | 24km/h | 31383m | 4.5m/s | 0°C | 0% | 0hPa | 0V | 00:00:00 | 00:00:00 | 00:00:00 | |
| RDZBGO | 2026-08-31 01:12:04 | 41.87713 | 9.35053 | 348° | 20km/h | 31274m | 4.7m/s | 0°C | 0% | 0hPa | 0V | 00:00:00 | 00:00:00 | 00:00:00 | |
| RDZBGO | 2026-08-31 01:11:44 | 41.87623 | 9.35172 | 318° | 20km/h | 31168m | 4.8m/s | 0°C | 0% | 0hPa | 0V | 00:00:00 | 00:00:00 | 00:00:00 | |
| RDZBGO | 2026-08-31 01:11:23 | 41.87577 | 9.35281 | 290° | 7km/h | 31057m | 5.1m/s | 0°C | 0% | 0hPa | 0V | 00:00:00 | 00:00:00 | 00:00:00 | |
| RDZBGO | 2026-08-31 01:11:03 | 41.87588 | 9.35421 | 255° | 27km/h | 30954m | 5.7m/s | 0°C | 0% | 0hPa | 0V | 00:00:00 | 00:00:00 | 00:00:00 | |
| RDZBGO | 2026-08-31 01:10:42 | 41.87635 | 9.35609 | 245° | 33km/h | 30844m | 5.6m/s | 0°C | 0% | 0hPa | 0V | 00:00:00 | 00:00:00 | 00:00:00 | |
| RDZBGO | 2026-08-31 01:10:21 | 41.87717 | 9.35746 | 239° | 27km/h | 30739m | 5.0m/s | 0°C | 0% | 0hPa | 0V | 00:00:00 | 00:00:00 | 00:00:00 | |
| RDZBGO | 2026-08-31 01:10:00 | 41.87767 | 9.35817 | 131° | 4km/h | 30631m | 5.2m/s | 0°C | 0% | 0hPa | 0V | 00:00:00 | 00:00:00 | 00:00:00 | |
| RDZBGO | 2026-08-31 01:09:40 | 41.87761 | 9.35839 | 42° | 9km/h | 30535m | 5.1m/s | 0°C | 0% | 0hPa | 0V | 00:00:00 | 00:00:00 | 00:00:00 | |
| RDZBGO | 2026-08-31 01:09:19 | 41.87695 | 9.35845 | 349° | 31km/h | 30435m | 4.6m/s | 0°C | 0% | 0hPa | 0V | 00:00:00 | 00:00:00 | 00:00:00 | |
| RDZBGO | 2026-08-31 01:08:59 | 41.87585 | 9.35867 | 331° | 29km/h | 30343m | 4.4m/s | 0°C | 0% | 0hPa | 0V | 00:00:00 | 00:00:00 | 00:00:00 | |
| RDZBGO | 2026-08-31 01:08:39 | 41.87468 | 9.35915 | 333° | 31km/h | 30251m | 4.8m/s | 0°C | 0% | 0hPa | 0V | 00:00:00 | 00:00:00 | 00:00:00 | |
| RDZBGO | 2026-08-31 01:08:18 | 41.87327 | 9.35990 | 317° | 29km/h | 30152m | 5.2m/s | 0°C | 0% | 0hPa | 0V | 00:00:00 | 00:00:00 | 00:00:00 | |
| RDZBGO | 2026-08-31 01:07:57 | 41.87214 | 9.36122 | 302° | 29km/h | 30049m | 5.2m/s | 0°C | 0% | 0hPa | 0V | 00:00:00 | 00:00:00 | 00:00:00 | |
| RDZBGO | 2026-08-31 01:07:36 | 41.87115 | 9.36303 | 275° | 24km/h | 29944m | 4.9m/s | 0°C | 0% | 0hPa | 0V | 00:00:00 | 00:00:00 | 00:00:00 | |
| RDZBGO | 2026-08-31 01:07:16 | 41.87084 | 9.36491 | 264° | 24km/h | 29840m | 4.8m/s | 0°C | 0% | 0hPa | 0V | 00:00:00 | 00:00:00 | 00:00:00 | |
| RDZBGO | 2026-08-31 01:06:55 | 41.87071 | 9.36683 | 263° | 26km/h | 29730m | 5.7m/s | 0°C | 0% | 0hPa | 0V | 00:00:00 | 00:00:00 | 00:00:00 | |
| RDZBGO | 2026-08-31 01:06:35 | 41.87057 | 9.36847 | 253° | 27km/h | 29623m | 4.8m/s | 0°C | 0% | 0hPa | 0V | 00:00:00 | 00:00:00 | 00:00:00 | |
| RDZBGO | 2026-08-31 01:06:15 | 41.87073 | 9.36949 | 307° | 13km/h | 29514m | 5.2m/s | 0°C | 0% | 0hPa | 0V | 00:00:00 | 00:00:00 | 00:00:00 | |
| RDZBGO | 2026-08-31 01:05:54 | 41.87054 | 9.37022 | 333° | 5km/h | 29402m | 5.4m/s | 0°C | 0% | 0hPa | 0V | 00:00:00 | 00:00:00 | 00:00:00 | |
| RDZBGO | 2026-08-31 01:05:33 | 41.87055 | 9.37092 | 233° | 16km/h | 29291m | 4.7m/s | 0°C | 0% | 0hPa | 0V | 00:00:00 | 00:00:00 | 00:00:00 | |
| RDZBGO | 2026-08-31 01:05:13 | 41.87074 | 9.37159 | 222° | 22km/h | 29188m | 5.0m/s | 0°C | 0% | 0hPa | 0V | 00:00:00 | 00:00:00 | 00:00:00 | |
| IW2NTF | 2026-08-31 01:05:07 | 41.87091 | 9.37168 | 232° | 22km/h | 29151m | 5.2m/s | 0°C | 0% | 0hPa | 0V | 00:00:00 | 00:00:00 | 00:00:00 | |
| IW2NTF | 2026-08-31 01:05:01 | 41.87122 | 9.37191 | 227° | 18km/h | 29096m | 4.4m/s | 0°C | 0% | 0hPa | 0V | 00:00:00 | 00:00:00 | 00:00:00 | |
| RDZBGO | 2026-08-31 01:04:53 | 41.87129 | 9.37198 | 192° | 18km/h | 29087m | 5.2m/s | 0°C | 0% | 0hPa | 0V | 00:00:00 | 00:00:00 | 00:00:00 | |
| IW2NTF | 2026-08-31 01:04:45 | 41.87173 | 9.37201 | 166° | 20km/h | 29022m | 5m/s | 0°C | 0% | 0hPa | 0V | 00:00:00 | 00:00:00 | 00:00:00 | |
| RDZBGO | 2026-08-31 01:04:32 | 41.87207 | 9.37201 | 157° | 18km/h | 28982m | 4.7m/s | 0°C | 0% | 0hPa | 0V | 00:00:00 | 00:00:00 | 00:00:00 | |
| RDZBGO | 2026-08-31 01:04:12 | 41.87286 | 9.37203 | 220° | 18km/h | 28880m | 4.3m/s | 0°C | 0% | 0hPa | 0V | 00:00:00 | 00:00:00 | 00:00:00 | |
| RDZBGO | 2026-08-31 01:03:51 | 41.87339 | 9.37253 | 179° | 11km/h | 28774m | 4.6m/s | 0°C | 0% | 0hPa | 0V | 00:00:00 | 00:00:00 | 00:00:00 | |
| RDZBGO | 2026-08-31 01:03:31 | 41.87391 | 9.37319 | 239° | 18km/h | 28675m | 5.7m/s | 0°C | 0% | 0hPa | 0V | 00:00:00 | 00:00:00 | 00:00:00 | |
| RDZBGO | 2026-08-31 01:03:10 | 41.87450 | 9.37365 | 194° | 15km/h | 28573m | 5.3m/s | 0°C | 0% | 0hPa | 0V | 00:00:00 | 00:00:00 | 00:00:00 | |
| RDZBGO | 2026-08-31 01:02:49 | 41.87508 | 9.37327 | 154° | 16km/h | 28469m | 4.4m/s | 0°C | 0% | 0hPa | 0V | 00:00:00 | 00:00:00 | 00:00:00 | |
| RDZBGO | 2026-08-31 01:02:29 | 41.87516 | 9.37298 | 26° | 2km/h | 28369m | 5.5m/s | 0°C | 0% | 0hPa | 0V | 00:00:00 | 00:00:00 | 00:00:00 | |
| RDZBGO | 2026-08-31 01:02:08 | 41.87493 | 9.37258 | 64° | 7km/h | 28262m | 5.7m/s | 0°C | 0% | 0hPa | 0V | 00:00:00 | 00:00:00 | 00:00:00 | |
| RDZBGO | 2026-08-31 01:01:47 | 41.87459 | 9.37219 | 58° | 13km/h | 28158m | 5.4m/s | 0°C | 0% | 0hPa | 0V | 00:00:00 | 00:00:00 | 00:00:00 | |
| RDZBGO | 2026-08-31 01:01:26 | 41.87400 | 9.37168 | 27° | 18km/h | 28054m | 5.9m/s | 0°C | 0% | 0hPa | 0V | 00:00:00 | 00:00:00 | 00:00:00 | |
| RDZBGO | 2026-08-31 01:01:06 | 41.87310 | 9.37117 | 27° | 26km/h | 27956m | 4.1m/s | 0°C | 0% | 0hPa | 0V | 00:00:00 | 00:00:00 | 00:00:00 | |
| IW2NTF | 2026-08-31 01:00:55 | 41.87238 | 9.37107 | 325° | 16km/h | 27893m | 4.9m/s | 0°C | 0% | 0hPa | 0V | 00:00:00 | 00:00:00 | 00:00:00 | |
| RDZBGO | 2026-08-31 01:00:45 | 41.87191 | 9.37122 | 320° | 22km/h | 27853m | 5.6m/s | 0°C | 0% | 0hPa | 0V | 00:00:00 | 00:00:00 | 00:00:00 | |
| RDZBGO | 2026-08-31 01:00:25 | 41.87078 | 9.37213 | 334° | 31km/h | 27754m | 5.0m/s | 0°C | 0% | 0hPa | 0V | 00:00:00 | 00:00:00 | 00:00:00 | |
| RDZBGO | 2026-08-31 01:00:04 | 41.86994 | 9.37316 | 292° | 20km/h | 27654m | 4.4m/s | 0°C | 0% | 0hPa | 0V | 00:00:00 | 00:00:00 | 00:00:00 | |
| RDZBGO | 2026-08-31 00:59:44 | 41.86960 | 9.37401 | 288° | 13km/h | 27563m | 3.3m/s | 0°C | 0% | 0hPa | 0V | 00:00:00 | 00:00:00 | 00:00:00 | |
| RDZBGO | 2026-08-31 00:59:23 | 41.86980 | 9.37445 | 198° | 7km/h | 27466m | 5.1m/s | 0°C | 0% | 0hPa | 0V | 00:00:00 | 00:00:00 | 00:00:00 | |
| IW2NTF | 2026-08-31 00:59:04 | 41.86997 | 9.37443 | 183° | 9km/h | 27350m | 4.6m/s | 0°C | 0% | 0hPa | 0V | 00:00:00 | 00:00:00 | 00:00:00 | |
| RDZBGO | 2026-08-31 00:59:02 | 41.86988 | 9.37442 | 136° | 4km/h | 27368m | 4.9m/s | 0°C | 0% | 0hPa | 0V | 00:00:00 | 00:00:00 | 00:00:00 | |
| RDZBGO | 2026-08-31 00:58:41 | 41.86986 | 9.37443 | 330° | 7km/h | 27273m | 4.8m/s | 0°C | 0% | 0hPa | 0V | 00:00:00 | 00:00:00 | 00:00:00 | |
| IW2NTF | 2026-08-31 00:58:34 | 41.86953 | 9.37427 | 50° | 4km/h | 27213m | 5.3m/s | 0°C | 0% | 0hPa | 0V | 00:00:00 | 00:00:00 | 00:00:00 | |
| IW2NTF | 2026-08-31 00:58:15 | 41.86911 | 9.37411 | 8° | 20km/h | 27144m | 4.3m/s | 0°C | 0% | 0hPa | 0V | 00:00:00 | 00:00:00 | 00:00:00 | |
| IW2NTF | 2026-08-31 00:57:50 | 41.86818 | 9.37456 | 342° | 20km/h | 27005m | 5.1m/s | 0°C | 0% | 0hPa | 0V | 00:00:00 | 00:00:00 | 00:00:00 | |
| IW2NTF | 2026-08-31 00:57:25 | 41.86717 | 9.37570 | 349° | 20km/h | 26880m | 4.5m/s | 0°C | 0% | 0hPa | 0V | 00:00:00 | 00:00:00 | 00:00:00 | |
| IW2NTF | 2026-08-31 00:57:04 | 41.86650 | 9.37649 | 323° | 13km/h | 26789m | 4.3m/s | 0°C | 0% | 0hPa | 0V | 00:00:00 | 00:00:00 | 00:00:00 | |
| IW2NTF | 2026-08-31 00:56:40 | 41.86591 | 9.37750 | 308° | 15km/h | 26657m | 4.6m/s | 0°C | 0% | 0hPa | 0V | 00:00:00 | 00:00:00 | 00:00:00 | |
| IW2NTF | 2026-08-31 00:56:16 | 41.86564 | 9.37857 | 288° | 20km/h | 26535m | 5.1m/s | 0°C | 0% | 0hPa | 0V | 00:00:00 | 00:00:00 | 00:00:00 | |
| IW2NTF | 2026-08-31 00:56:01 | 41.86547 | 9.37918 | 305° | 20km/h | 26448m | 5m/s | 0°C | 0% | 0hPa | 0V | 00:00:00 | 00:00:00 | 00:00:00 | |
| IW2NTF | 2026-08-31 00:55:48 | 41.86529 | 9.37961 | 300° | 4km/h | 26387m | 4.8m/s | 0°C | 0% | 0hPa | 0V | 00:00:00 | 00:00:00 | 00:00:00 | |
| IW2NTF | 2026-08-31 00:55:20 | 41.86459 | 9.38035 | 307° | 20km/h | 26253m | 5.3m/s | 0°C | 0% | 0hPa | 0V | 00:00:00 | 00:00:00 | 00:00:00 | |
| IW2NTF | 2026-08-31 00:54:20 | 41.86292 | 9.38330 | 318° | 26km/h | 25969m | 4.1m/s | 0°C | 0% | 0hPa | 0V | 00:00:00 | 00:00:00 | 00:00:00 | |
| IW2NTF | 2026-08-31 00:53:48 | 41.86140 | 9.38473 | 298° | 29km/h | 25814m | 4.3m/s | 0°C | 0% | 0hPa | 0V | 00:00:00 | 00:00:00 | 00:00:00 | |
| IW2NTF | 2026-08-31 00:53:27 | 41.86081 | 9.38605 | 295° | 26km/h | 25724m | 4.9m/s | 0°C | 0% | 0hPa | 0V | 00:00:00 | 00:00:00 | 00:00:00 | |
| IW2NTF | 2026-08-31 00:50:00 | 41.85587 | 9.39743 | 284° | 22km/h | 24755m | 5.2m/s | 0°C | 0% | 0hPa | 0V | 00:00:00 | 00:00:00 | 00:00:00 | |
| IW2NTF | 2026-08-31 00:49:21 | 41.85553 | 9.39968 | 276° | 13km/h | 24568m | 4.1m/s | 0°C | 0% | 0hPa | 0V | 00:00:00 | 00:00:00 | 00:00:00 | |
| IW2NTF | 2026-08-31 00:48:38 | 41.85517 | 9.40106 | 272° | 18km/h | 24384m | 4.7m/s | 0°C | 0% | 0hPa | 0V | 00:00:00 | 00:00:00 | 00:00:00 | |
| IW2NTF | 2026-08-31 00:48:28 | 41.85473 | 9.40144 | 315° | 16km/h | 24318m | 5.3m/s | 0°C | 0% | 0hPa | 0V | 00:00:00 | 00:00:00 | 00:00:00 | |
| IW2NTF | 2026-08-31 00:47:35 | 41.85334 | 9.40419 | 264° | 15km/h | 24067m | 3.9m/s | 0°C | 0% | 0hPa | 0V | 00:00:00 | 00:00:00 | 00:00:00 | |
| IW2NTF | 2026-08-31 00:46:57 | 41.85348 | 9.40555 | 220° | 11km/h | 23899m | 5.8m/s | 0°C | 0% | 0hPa | 0V | 00:00:00 | 00:00:00 | 00:00:00 | |
| IW2NTF | 2026-08-31 00:46:17 | 41.85369 | 9.40608 | 213° | 13km/h | 23685m | 5m/s | 0°C | 0% | 0hPa | 0V | 00:00:00 | 00:00:00 | 00:00:00 | |
| RDZBGO | 2026-08-31 00:45:19 | 41.85355 | 9.40654 | 20° | 13km/h | 23439m | 5.4m/s | 0°C | 0% | 0hPa | 0V | 00:00:00 | 00:00:00 | 00:00:00 | |
| IW2NTF | 2026-08-31 00:44:51 | 41.85247 | 9.40744 | 278° | 18km/h | 23283m | 3.6m/s | 0°C | 0% | 0hPa | 0V | 00:00:00 | 00:00:00 | 00:00:00 | |
| RDZBGO | 2026-08-31 00:44:47 | 41.85250 | 9.40734 | 320° | 16km/h | 23293m | 5.2m/s | 0°C | 0% | 0hPa | 0V | 00:00:00 | 00:00:00 | 00:00:00 | |
| RDZBGO | 2026-08-31 00:44:21 | 41.85175 | 9.40896 | 304° | 26km/h | 23180m | 5.2m/s | 0°C | 0% | 0hPa | 0V | 00:00:00 | 00:00:00 | 00:00:00 | |
| IW2NTF | 2026-08-31 00:43:50 | 41.85153 | 9.41214 | 290° | 24km/h | 23017m | 3.9m/s | 0°C | 0% | 0hPa | 0V | 00:00:00 | 00:00:00 | 00:00:00 | |
| RDZBGO | 2026-08-31 00:43:37 | 41.85166 | 9.41262 | 292° | 9km/h | 22990m | 3.9m/s | 0°C | 0% | 0hPa | 0V | 00:00:00 | 00:00:00 | 00:00:00 | |
| RDZBGO | 2026-08-31 00:43:15 | 41.85220 | 9.41362 | 179° | 9km/h | 22892m | 4.7m/s | 0°C | 0% | 0hPa | 0V | 00:00:00 | 00:00:00 | 00:00:00 | |
| IW2NTF | 2026-08-31 00:43:13 | 41.85242 | 9.41376 | 153° | 9km/h | 22861m | 3.9m/s | 0°C | 0% | 0hPa | 0V | 00:00:00 | 00:00:00 | 00:00:00 | |
| RDZBGO | 2026-08-31 00:42:55 | 41.85286 | 9.41393 | 157° | 16km/h | 22803m | 4.0m/s | 0°C | 0% | 0hPa | 0V | 00:00:00 | 00:00:00 | 00:00:00 | |
| IW2NTF | 2026-08-31 00:42:43 | 41.85332 | 9.41393 | 160° | 13km/h | 22747m | 5.1m/s | 0°C | 0% | 0hPa | 0V | 00:00:00 | 00:00:00 | 00:00:00 | |
| RDZBGO | 2026-08-31 00:42:34 | 41.85362 | 9.41385 | 135° | 16km/h | 22712m | 4.7m/s | 0°C | 0% | 0hPa | 0V | 00:00:00 | 00:00:00 | 00:00:00 | |
| IW2NTF | 2026-08-31 00:42:27 | 41.85408 | 9.41369 | 141° | 20km/h | 22650m | 4.2m/s | 0°C | 0% | 0hPa | 0V | 00:00:00 | 00:00:00 | 00:00:00 | |
| RDZBGO | 2026-08-31 00:42:14 | 41.85431 | 9.41364 | 205° | 18km/h | 22626m | 3.5m/s | 0°C | 0% | 0hPa | 0V | 00:00:00 | 00:00:00 | 00:00:00 | |
| RDZBGO | 2026-08-31 00:41:53 | 41.85492 | 9.41375 | 232° | 16km/h | 22534m | 3.7m/s | 0°C | 0% | 0hPa | 0V | 00:00:00 | 00:00:00 | 00:00:00 | |
| RDZBGO | 2026-08-31 00:41:33 | 41.85499 | 9.41395 | 264° | 15km/h | 22444m | 4.3m/s | 0°C | 0% | 0hPa | 0V | 00:00:00 | 00:00:00 | 00:00:00 | |
| IW2NTF | 2026-08-31 00:41:13 | 41.85473 | 9.41405 | 53° | 11km/h | 22333m | 3.5m/s | 0°C | 0% | 0hPa | 0V | 00:00:00 | 00:00:00 | 00:00:00 | |
| RDZBGO | 2026-08-31 00:40:51 | 41.85447 | 9.41385 | 111° | 5km/h | 22256m | 4.0m/s | 0°C | 0% | 0hPa | 0V | 00:00:00 | 00:00:00 | 00:00:00 | |
| IW2NTF | 2026-08-31 00:40:43 | 41.85424 | 9.41347 | 57° | 5km/h | 22193m | 4m/s | 0°C | 0% | 0hPa | 0V | 00:00:00 | 00:00:00 | 00:00:00 | |
| RDZBGO | 2026-08-31 00:40:31 | 41.85409 | 9.41323 | 47° | 18km/h | 22167m | 4.8m/s | 0°C | 0% | 0hPa | 0V | 00:00:00 | 00:00:00 | 00:00:00 | |
| RDZBGO | 2026-08-31 00:40:10 | 41.85332 | 9.41248 | 29° | 27km/h | 22076m | 4.0m/s | 0°C | 0% | 0hPa | 0V | 00:00:00 | 00:00:00 | 00:00:00 | |
| RDZBGO | 2026-08-31 00:39:50 | 41.85216 | 9.41164 | 21° | 38km/h | 21985m | 4.6m/s | 0°C | 0% | 0hPa | 0V | 00:00:00 | 00:00:00 | 00:00:00 | |
| RDZBGO | 2026-08-31 00:39:30 | 41.85088 | 9.41127 | 11° | 31km/h | 21894m | 4.5m/s | 0°C | 0% | 0hPa | 0V | 00:00:00 | 00:00:00 | 00:00:00 | |
| RDZBGO | 2026-08-31 00:39:09 | 41.84952 | 9.41161 | 347° | 31km/h | 21804m | 4.5m/s | 0°C | 0% | 0hPa | 0V | 00:00:00 | 00:00:00 | 00:00:00 | |
| RDZBGO | 2026-08-31 00:38:48 | 41.84809 | 9.41270 | 334° | 29km/h | 21712m | 4.2m/s | 0°C | 0% | 0hPa | 0V | 00:00:00 | 00:00:00 | 00:00:00 | |
| IW2NTF | 2026-08-31 00:38:43 | 41.84739 | 9.41337 | 311° | 37km/h | 21668m | 4.4m/s | 0°C | 0% | 0hPa | 0V | 00:00:00 | 00:00:00 | 00:00:00 | |
| RDZBGO | 2026-08-31 00:38:27 | 41.84677 | 9.41423 | 316° | 24km/h | 21619m | 4.2m/s | 0°C | 0% | 0hPa | 0V | 00:00:00 | 00:00:00 | 00:00:00 | |
| RDZBGO | 2026-08-31 00:38:06 | 41.84594 | 9.41583 | 310° | 29km/h | 21526m | 4.8m/s | 0°C | 0% | 0hPa | 0V | 00:00:00 | 00:00:00 | 00:00:00 | |
| RDZBGO | 2026-08-31 00:37:45 | 41.84558 | 9.41732 | 267° | 22km/h | 21434m | 3.5m/s | 0°C | 0% | 0hPa | 0V | 00:00:00 | 00:00:00 | 00:00:00 | |
| RDZBGO | 2026-08-31 00:37:25 | 41.84553 | 9.41817 | 317° | 13km/h | 21346m | 3.8m/s | 0°C | 0% | 0hPa | 0V | 00:00:00 | 00:00:00 | 00:00:00 | |
| RDZBGO | 2026-08-31 00:37:05 | 41.84544 | 9.41870 | 260° | 9km/h | 21261m | 4.8m/s | 0°C | 0% | 0hPa | 0V | 00:00:00 | 00:00:00 | 00:00:00 | |
| RDZBGO | 2026-08-31 00:36:45 | 41.84549 | 9.41931 | 201° | 11km/h | 21173m | 3.8m/s | 0°C | 0% | 0hPa | 0V | 00:00:00 | 00:00:00 | 00:00:00 | |
| RDZBGO | 2026-08-31 00:36:24 | 41.84563 | 9.41940 | 132° | 7km/h | 21085m | 4.4m/s | 0°C | 0% | 0hPa | 0V | 00:00:00 | 00:00:00 | 00:00:00 | |
| RDZBGO | 2026-08-31 00:36:03 | 41.84568 | 9.41899 | 183° | 4km/h | 20999m | 4.0m/s | 0°C | 0% | 0hPa | 0V | 00:00:00 | 00:00:00 | 00:00:00 | |
| RDZBGO | 2026-08-31 00:35:42 | 41.84568 | 9.41858 | 329° | 4km/h | 20908m | 3.9m/s | 0°C | 0% | 0hPa | 0V | 00:00:00 | 00:00:00 | 00:00:00 | |
| RDZBGO | 2026-08-31 00:35:23 | 41.84545 | 9.41840 | 12° | 5km/h | 20824m | 5.1m/s | 0°C | 0% | 0hPa | 0V | 00:00:00 | 00:00:00 | 00:00:00 | |
| RDZBGO | 2026-08-31 00:35:01 | 41.84518 | 9.41871 | 7° | 15km/h | 20734m | 3.7m/s | 0°C | 0% | 0hPa | 0V | 00:00:00 | 00:00:00 | 00:00:00 | |
| RDZBGO | 2026-08-31 00:34:40 | 41.84466 | 9.41967 | 307° | 13km/h | 20646m | 3.7m/s | 0°C | 0% | 0hPa | 0V | 00:00:00 | 00:00:00 | 00:00:00 | |
| RDZBGO | 2026-08-31 00:34:20 | 41.84461 | 9.42051 | 337° | 5km/h | 20557m | 4.2m/s | 0°C | 0% | 0hPa | 0V | 00:00:00 | 00:00:00 | 00:00:00 | |
| RDZBGO | 2026-08-31 00:33:59 | 41.84483 | 9.42054 | 169° | 20km/h | 20466m | 3.9m/s | 0°C | 0% | 0hPa | 0V | 00:00:00 | 00:00:00 | 00:00:00 | |
| RDZBGO | 2026-08-31 00:33:38 | 41.84534 | 9.41962 | 130° | 24km/h | 20376m | 4.1m/s | 0°C | 0% | 0hPa | 0V | 00:00:00 | 00:00:00 | 00:00:00 | |
| RDZBGO | 2026-08-31 00:33:18 | 41.84543 | 9.41834 | 101° | 20km/h | 20291m | 4.2m/s | 0°C | 0% | 0hPa | 0V | 00:00:00 | 00:00:00 | 00:00:00 | |
| RDZBGO | 2026-08-31 00:32:58 | 41.84549 | 9.41732 | 86° | 18km/h | 20205m | 4.6m/s | 0°C | 0% | 0hPa | 0V | 00:00:00 | 00:00:00 | 00:00:00 | |
| RDZBGO | 2026-08-31 00:32:37 | 41.84519 | 9.41654 | 28° | 7km/h | 20117m | 3.9m/s | 0°C | 0% | 0hPa | 0V | 00:00:00 | 00:00:00 | 00:00:00 | |
| RDZBGO | 2026-08-31 00:32:16 | 41.84467 | 9.41618 | 343° | 11km/h | 20029m | 4.3m/s | 0°C | 0% | 0hPa | 0V | 00:00:00 | 00:00:00 | 00:00:00 | |
| RDZBGO | 2026-08-31 00:31:56 | 41.84410 | 9.41559 | 345° | 11km/h | 19943m | 3.0m/s | 0°C | 0% | 0hPa | 0V | 00:00:00 | 00:00:00 | 00:00:00 | |
| RDZBGO | 2026-08-31 00:31:36 | 41.84332 | 9.41498 | 34° | 24km/h | 19857m | 4.9m/s | 0°C | 0% | 0hPa | 0V | 00:00:00 | 00:00:00 | 00:00:00 | |
| RDZBGO | 2026-08-31 00:31:16 | 41.84265 | 9.41440 | 25° | 16km/h | 19773m | 4.8m/s | 0°C | 0% | 0hPa | 0V | 00:00:00 | 00:00:00 | 00:00:00 | |
| RDZBGO | 2026-08-31 00:30:35 | 41.84095 | 9.41306 | 20° | 29km/h | 19602m | 3.8m/s | 0°C | 0% | 0hPa | 0V | 00:00:00 | 00:00:00 | 00:00:00 | |
| RDZBGO | 2026-08-31 00:30:16 | 41.84028 | 9.41279 | 5° | 13km/h | 19519m | 4.4m/s | 0°C | 0% | 0hPa | 0V | 00:00:00 | 00:00:00 | 00:00:00 | |
| RDZBGO | 2026-08-31 00:29:55 | 41.84016 | 9.41248 | 95° | 13km/h | 19435m | 3.5m/s | 0°C | 0% | 0hPa | 0V | 00:00:00 | 00:00:00 | 00:00:00 | |
| RDZBGO | 2026-08-31 00:29:34 | 41.84047 | 9.41142 | 120° | 26km/h | 19350m | 4.0m/s | 0°C | 0% | 0hPa | 0V | 00:00:00 | 00:00:00 | 00:00:00 | |
| RDZBGO | 2026-08-31 00:29:13 | 41.84065 | 9.40936 | 89° | 38km/h | 19260m | 4.7m/s | 0°C | 0% | 0hPa | 0V | 00:00:00 | 00:00:00 | 00:00:00 | |
| RDZBGO | 2026-08-31 00:28:53 | 41.84053 | 9.40677 | 81° | 38km/h | 19180m | 4.0m/s | 0°C | 0% | 0hPa | 0V | 00:00:00 | 00:00:00 | 00:00:00 | |
| RDZBGO | 2026-08-31 00:28:32 | 41.83998 | 9.40491 | 66° | 26km/h | 19095m | 4.1m/s | 0°C | 0% | 0hPa | 0V | 00:00:00 | 00:00:00 | 00:00:00 | |
| RDZBGO | 2026-08-31 00:28:12 | 41.83906 | 9.40372 | 54° | 20km/h | 19013m | 2.9m/s | 0°C | 0% | 0hPa | 0V | 00:00:00 | 00:00:00 | 00:00:00 | |
| RDZBGO | 2026-08-31 00:27:32 | 41.83736 | 9.40239 | 21° | 15km/h | 18851m | 3.9m/s | 0°C | 0% | 0hPa | 0V | 00:00:00 | 00:00:00 | 00:00:00 | |
| RDZBGO | 2026-08-31 00:27:11 | 41.83674 | 9.40208 | 59° | 16km/h | 18766m | 4.0m/s | 0°C | 0% | 0hPa | 0V | 00:00:00 | 00:00:00 | 00:00:00 | |
| RDZBGO | 2026-08-31 00:26:50 | 41.83651 | 9.40162 | 67° | 9km/h | 18682m | 5.1m/s | 0°C | 0% | 0hPa | 0V | 00:00:00 | 00:00:00 | 00:00:00 | |
| RDZBGO | 2026-08-31 00:26:29 | 41.83649 | 9.40089 | 110° | 16km/h | 18593m | 5.0m/s | 0°C | 0% | 0hPa | 0V | 00:00:00 | 00:00:00 | 00:00:00 | |
| RDZBGO | 2026-08-31 00:26:08 | 41.83649 | 9.39927 | 93° | 26km/h | 18507m | 4.1m/s | 0°C | 0% | 0hPa | 0V | 00:00:00 | 00:00:00 | 00:00:00 | |
| RDZBGO | 2026-08-31 00:25:47 | 41.83627 | 9.39731 | 97° | 31km/h | 18419m | 4.0m/s | 0°C | 0% | 0hPa | 0V | 00:00:00 | 00:00:00 | 00:00:00 | |
| RDZBGO | 2026-08-31 00:25:26 | 41.83614 | 9.39569 | 108° | 18km/h | 18334m | 3.8m/s | 0°C | 0% | 0hPa | 0V | 00:00:00 | 00:00:00 | 00:00:00 | |
| RDZBGO | 2026-08-31 00:25:06 | 41.83634 | 9.39423 | 108° | 27km/h | 18252m | 4.8m/s | 0°C | 0% | 0hPa | 0V | 00:00:00 | 00:00:00 | 00:00:00 | |
| RDZBGO | 2026-08-31 00:24:45 | 41.83642 | 9.39222 | 89° | 29km/h | 18165m | 4.4m/s | 0°C | 0% | 0hPa | 0V | 00:00:00 | 00:00:00 | 00:00:00 | |
| RDZBGO | 2026-08-31 00:24:25 | 41.83615 | 9.39029 | 74° | 29km/h | 18084m | 4.4m/s | 0°C | 0% | 0hPa | 0V | 00:00:00 | 00:00:00 | 00:00:00 | |
| RDZBGO | 2026-08-31 00:24:04 | 41.83575 | 9.38832 | 73° | 27km/h | 18001m | 3.6m/s | 0°C | 0% | 0hPa | 0V | 00:00:00 | 00:00:00 | 00:00:00 | |
| RDZBGO | 2026-08-31 00:23:43 | 41.83564 | 9.38604 | 91° | 31km/h | 17918m | 4.2m/s | 0°C | 0% | 0hPa | 0V | 00:00:00 | 00:00:00 | 00:00:00 | |
| RDZBGO | 2026-08-31 00:23:02 | 41.83534 | 9.38145 | 67° | 33km/h | 17750m | 2.3m/s | 0°C | 0% | 0hPa | 0V | 00:00:00 | 00:00:00 | 00:00:00 | |
| RDZBGO | 2026-08-31 00:22:42 | 41.83503 | 9.37874 | 77° | 40km/h | 17670m | 4.8m/s | 0°C | 0% | 0hPa | 0V | 00:00:00 | 00:00:00 | 00:00:00 | |
| RDZBGO | 2026-08-31 00:22:22 | 41.83449 | 9.37588 | 89° | 44km/h | 17586m | 4.3m/s | 0°C | 0% | 0hPa | 0V | 00:00:00 | 00:00:00 | 00:00:00 | |
| RDZBGO | 2026-08-31 00:22:02 | 41.83373 | 9.37325 | 76° | 40km/h | 17500m | 3.5m/s | 0°C | 0% | 0hPa | 0V | 00:00:00 | 00:00:00 | 00:00:00 | |
| RDZBGO | 2026-08-31 00:21:41 | 41.83274 | 9.37089 | 55° | 37km/h | 17410m | 3.9m/s | 0°C | 0% | 0hPa | 0V | 00:00:00 | 00:00:00 | 00:00:00 | |
| RDZBGO | 2026-08-31 00:21:20 | 41.83217 | 9.36836 | 87° | 46km/h | 17322m | 3.2m/s | 0°C | 0% | 0hPa | 0V | 00:00:00 | 00:00:00 | 00:00:00 | |
| RDZBGO | 2026-08-31 00:20:59 | 41.83197 | 9.36533 | 96° | 44km/h | 17236m | 3.7m/s | 0°C | 0% | 0hPa | 0V | 00:00:00 | 00:00:00 | 00:00:00 | |
| RDZBGO | 2026-08-31 00:20:38 | 41.83158 | 9.36209 | 74° | 55km/h | 17151m | 3.9m/s | 0°C | 0% | 0hPa | 0V | 00:00:00 | 00:00:00 | 00:00:00 | |
| RDZBGO | 2026-08-31 00:20:17 | 41.83076 | 9.35901 | 70° | 40km/h | 17067m | 3.6m/s | 0°C | 0% | 0hPa | 0V | 00:00:00 | 00:00:00 | 00:00:00 | |
| RDZBGO | 2026-08-31 00:19:57 | 41.82977 | 9.35603 | 73° | 44km/h | 16989m | 3.7m/s | 0°C | 0% | 0hPa | 0V | 00:00:00 | 00:00:00 | 00:00:00 | |
| RDZBGO | 2026-08-31 00:19:37 | 41.82863 | 9.35300 | 54° | 53km/h | 16908m | 3.8m/s | 0°C | 0% | 0hPa | 0V | 00:00:00 | 00:00:00 | 00:00:00 | |
| RDZBGO | 2026-08-31 00:19:17 | 41.82741 | 9.35018 | 58° | 47km/h | 16829m | 3.5m/s | 0°C | 0% | 0hPa | 0V | 00:00:00 | 00:00:00 | 00:00:00 | |
| RDZBGO | 2026-08-31 00:18:56 | 41.82636 | 9.34776 | 64° | 37km/h | 16746m | 4.2m/s | 0°C | 0% | 0hPa | 0V | 00:00:00 | 00:00:00 | 00:00:00 | |
| RDZBGO | 2026-08-31 00:18:35 | 41.82536 | 9.34560 | 54° | 42km/h | 16666m | 4.7m/s | 0°C | 0% | 0hPa | 0V | 00:00:00 | 00:00:00 | 00:00:00 | |
| RDZBGO | 2026-08-31 00:18:14 | 41.82393 | 9.34313 | 49° | 38km/h | 16585m | 4.3m/s | 0°C | 0% | 0hPa | 0V | 00:00:00 | 00:00:00 | 00:00:00 | |
| RDZBGO | 2026-08-31 00:17:53 | 41.82263 | 9.34117 | 70° | 26km/h | 16505m | 2.8m/s | 0°C | 0% | 0hPa | 0V | 00:00:00 | 00:00:00 | 00:00:00 | |
| RDZBGO | 2026-08-31 00:17:33 | 41.82186 | 9.33948 | 78° | 29km/h | 16423m | 4.7m/s | 0°C | 0% | 0hPa | 0V | 00:00:00 | 00:00:00 | 00:00:00 | |
| RDZBGO | 2026-08-31 00:17:13 | 41.82164 | 9.33743 | 92° | 40km/h | 16348m | 3.0m/s | 0°C | 0% | 0hPa | 0V | 00:00:00 | 00:00:00 | 00:00:00 | |
| RDZBGO | 2026-08-31 00:16:52 | 41.82146 | 9.33492 | 84° | 31km/h | 16270m | 3.1m/s | 0°C | 0% | 0hPa | 0V | 00:00:00 | 00:00:00 | 00:00:00 | |
| RDZBGO | 2026-08-31 00:16:32 | 41.82132 | 9.33234 | 102° | 38km/h | 16196m | 3.5m/s | 0°C | 0% | 0hPa | 0V | 00:00:00 | 00:00:00 | 00:00:00 | |
| RDZBGO | 2026-08-31 00:16:12 | 41.82105 | 9.32993 | 74° | 38km/h | 16123m | 4.2m/s | 0°C | 0% | 0hPa | 0V | 00:00:00 | 00:00:00 | 00:00:00 | |
| RDZBGO | 2026-08-31 00:15:52 | 41.82069 | 9.32731 | 81° | 44km/h | 16047m | 4.3m/s | 0°C | 0% | 0hPa | 0V | 00:00:00 | 00:00:00 | 00:00:00 | |
| RDZBGO | 2026-08-31 00:15:31 | 41.82003 | 9.32464 | 65° | 49km/h | 15957m | 3.5m/s | 0°C | 0% | 0hPa | 0V | 00:00:00 | 00:00:00 | 00:00:00 | |
| RDZBGO | 2026-08-31 00:15:11 | 41.81885 | 9.32242 | 48° | 51km/h | 15873m | 3.2m/s | 0°C | 0% | 0hPa | 0V | 00:00:00 | 00:00:00 | 00:00:00 | |
| RDZBGO | 2026-08-31 00:14:50 | 41.81711 | 9.32029 | 34° | 58km/h | 15789m | 3.7m/s | 0°C | 0% | 0hPa | 0V | 00:00:00 | 00:00:00 | 00:00:00 | |
| RDZBGO | 2026-08-31 00:14:29 | 41.81559 | 9.31806 | 58° | 44km/h | 15690m | 4.2m/s | 0°C | 0% | 0hPa | 0V | 00:00:00 | 00:00:00 | 00:00:00 | |
| RDZBGO | 2026-08-31 00:14:09 | 41.81480 | 9.31568 | 70° | 46km/h | 15607m | 3.5m/s | 0°C | 0% | 0hPa | 0V | 00:00:00 | 00:00:00 | 00:00:00 | |
| RDZBGO | 2026-08-31 00:13:49 | 41.81422 | 9.31295 | 71° | 49km/h | 15525m | 3.3m/s | 0°C | 0% | 0hPa | 0V | 00:00:00 | 00:00:00 | 00:00:00 | |
| RDZBGO | 2026-08-31 00:13:28 | 41.81354 | 9.30966 | 73° | 53km/h | 15445m | 4.1m/s | 0°C | 0% | 0hPa | 0V | 00:00:00 | 00:00:00 | 00:00:00 | |
| RDZBGO | 2026-08-31 00:13:08 | 41.81264 | 9.30688 | 54° | 40km/h | 15362m | 4.0m/s | 0°C | 0% | 0hPa | 0V | 00:00:00 | 00:00:00 | 00:00:00 | |
| RDZBGO | 2026-08-31 00:12:47 | 41.81192 | 9.30448 | 69° | 40km/h | 15277m | 5.6m/s | 0°C | 0% | 0hPa | 0V | 00:00:00 | 00:00:00 | 00:00:00 | |
| RDZBGO | 2026-08-31 00:12:27 | 41.81137 | 9.30164 | 83° | 51km/h | 15196m | 3.1m/s | 0°C | 0% | 0hPa | 0V | 00:00:00 | 00:00:00 | 00:00:00 | |
| RDZBGO | 2026-08-31 00:12:06 | 41.81088 | 9.29809 | 81° | 44km/h | 15112m | 3.3m/s | 0°C | 0% | 0hPa | 0V | 00:00:00 | 00:00:00 | 00:00:00 | |
| RDZBGO | 2026-08-31 00:11:46 | 41.81055 | 9.29493 | 82° | 53km/h | 15034m | 3.1m/s | 0°C | 0% | 0hPa | 0V | 00:00:00 | 00:00:00 | 00:00:00 | |
| RDZBGO | 2026-08-31 00:11:26 | 41.81049 | 9.29142 | 92° | 55km/h | 14956m | 4.8m/s | 0°C | 0% | 0hPa | 0V | 00:00:00 | 00:00:00 | 00:00:00 | |
| RDZBGO | 2026-08-31 00:11:06 | 41.81034 | 9.28714 | 88° | 71km/h | 14878m | 3.9m/s | 0°C | 0% | 0hPa | 0V | 00:00:00 | 00:00:00 | 00:00:00 | |
| RDZBGO | 2026-08-31 00:10:45 | 41.80986 | 9.28216 | 83° | 69km/h | 14801m | 4.6m/s | 0°C | 0% | 0hPa | 0V | 00:00:00 | 00:00:00 | 00:00:00 | |
| RDZBGO | 2026-08-31 00:10:24 | 41.80948 | 9.27762 | 84° | 62km/h | 14721m | 5.1m/s | 0°C | 0% | 0hPa | 0V | 00:00:00 | 00:00:00 | 00:00:00 | |
| RDZBGO | 2026-08-31 00:10:03 | 41.80952 | 9.27357 | 88° | 58km/h | 14643m | 2.4m/s | 0°C | 0% | 0hPa | 0V | 00:00:00 | 00:00:00 | 00:00:00 | |
| RDZBGO | 2026-08-31 00:09:42 | 41.81024 | 9.26952 | 115° | 62km/h | 14569m | 2.8m/s | 0°C | 0% | 0hPa | 0V | 00:00:00 | 00:00:00 | 00:00:00 | |
| RDZBGO | 2026-08-31 00:09:21 | 41.81102 | 9.26481 | 100° | 64km/h | 14496m | 3.8m/s | 0°C | 0% | 0hPa | 0V | 00:00:00 | 00:00:00 | 00:00:00 | |
| RDZBGO | 2026-08-31 00:09:00 | 41.81136 | 9.26021 | 94° | 60km/h | 14426m | 4.2m/s | 0°C | 0% | 0hPa | 0V | 00:00:00 | 00:00:00 | 00:00:00 | |
| RDZBGO | 2026-08-31 00:08:40 | 41.81140 | 9.25646 | 90° | 49km/h | 14356m | 4.4m/s | 0°C | 0% | 0hPa | 0V | 00:00:00 | 00:00:00 | 00:00:00 | |
| RDZBGO | 2026-08-31 00:08:19 | 41.81177 | 9.25280 | 94° | 57km/h | 14281m | 3.7m/s | 0°C | 0% | 0hPa | 0V | 00:00:00 | 00:00:00 | 00:00:00 | |
| RDZBGO | 2026-08-31 00:07:58 | 41.81244 | 9.24906 | 101° | 55km/h | 14203m | 4.4m/s | 0°C | 0% | 0hPa | 0V | 00:00:00 | 00:00:00 | 00:00:00 | |
| RDZBGO | 2026-08-31 00:07:38 | 41.81322 | 9.24557 | 111° | 58km/h | 14129m | 4.2m/s | 0°C | 0% | 0hPa | 0V | 00:00:00 | 00:00:00 | 00:00:00 | |
| RDZBGO | 2026-08-31 00:07:17 | 41.81437 | 9.24180 | 104° | 68km/h | 14051m | 4.2m/s | 0°C | 0% | 0hPa | 0V | 00:00:00 | 00:00:00 | 00:00:00 | |
| RDZBGO | 2026-08-31 00:06:56 | 41.81544 | 9.23794 | 118° | 60km/h | 13972m | 4.0m/s | 0°C | 0% | 0hPa | 0V | 00:00:00 | 00:00:00 | 00:00:00 | |
| RDZBGO | 2026-08-31 00:06:35 | 41.81650 | 9.23402 | 117° | 58km/h | 13886m | 4.9m/s | 0°C | 0% | 0hPa | 0V | 00:00:00 | 00:00:00 | 00:00:00 | |
| RDZBGO | 2026-08-31 00:06:14 | 41.81759 | 9.22990 | 110° | 55km/h | 13799m | 3.9m/s | 0°C | 0% | 0hPa | 0V | 00:00:00 | 00:00:00 | 00:00:00 | |
| RDZBGO | 2026-08-31 00:05:53 | 41.81880 | 9.22570 | 109° | 64km/h | 13710m | 4.9m/s | 0°C | 0% | 0hPa | 0V | 00:00:00 | 00:00:00 | 00:00:00 | |
| RDZBGO | 2026-08-31 00:05:32 | 41.81991 | 9.22157 | 108° | 60km/h | 13621m | 4.7m/s | 0°C | 0% | 0hPa | 0V | 00:00:00 | 00:00:00 | 00:00:00 | |
| RDZBGO | 2026-08-31 00:05:11 | 41.82089 | 9.21753 | 107° | 58km/h | 13530m | 5.6m/s | 0°C | 0% | 0hPa | 0V | 00:00:00 | 00:00:00 | 00:00:00 | |
| RDZBGO | 2026-08-31 00:04:50 | 41.82174 | 9.21364 | 116° | 60km/h | 13446m | 9.2m/s | 0°C | 0% | 0hPa | 0V | 00:00:00 | 00:00:00 | 00:00:00 | |
| RDZBGO | 2026-08-31 00:04:30 | 41.82258 | 9.20968 | 107° | 58km/h | 13358m | 4.4m/s | 0°C | 0% | 0hPa | 0V | 00:00:00 | 00:00:00 | 00:00:00 | |
| RDZBGO | 2026-08-31 00:04:09 | 41.82345 | 9.20583 | 114° | 58km/h | 13270m | 4.4m/s | 0°C | 0% | 0hPa | 0V | 00:00:00 | 00:00:00 | 00:00:00 | |
| RDZBGO | 2026-08-31 00:03:48 | 41.82436 | 9.20208 | 111° | 60km/h | 13188m | 4.6m/s | 0°C | 0% | 0hPa | 0V | 00:00:00 | 00:00:00 | 00:00:00 | |
| RDZBGO | 2026-08-31 00:03:30 | 41.82561 | 9.19829 | 114° | 66km/h | 13104m | 5.3m/s | 0°C | 0% | 0hPa | 0V | 00:00:00 | 00:00:00 | 00:00:00 | |
| RDZBGO | 2026-08-31 00:03:07 | 41.82711 | 9.19452 | 123° | 60km/h | 13020m | 4.5m/s | 0°C | 0% | 0hPa | 0V | 00:00:00 | 00:00:00 | 00:00:00 | |
| RDZBGO | 2026-08-31 00:02:36 | 41.83146 | 9.18282 | 120° | 58km/h | 12780m | 4.2m/s | 0°C | 0% | 0hPa | 0V | 00:00:00 | 00:00:00 | 00:00:00 | |
| RDZBGO | 2026-08-31 00:02:09 | 41.83302 | 9.17876 | 118° | 68km/h | 12699m | 3.9m/s | 0°C | 0% | 0hPa | 0V | 00:00:00 | 00:00:00 | 00:00:00 | |
| RDZBGO | 2026-08-31 00:01:35 | 41.83441 | 9.17506 | 118° | 62km/h | 12621m | 4.4m/s | 0°C | 0% | 0hPa | 0V | 00:00:00 | 00:00:00 | 00:00:00 | |
| RDZBGO | 2026-08-31 00:01:11 | 41.83581 | 9.17119 | 111° | 69km/h | 12545m | 2.9m/s | 0°C | 0% | 0hPa | 0V | 00:00:00 | 00:00:00 | 00:00:00 | |
| RDZBGO | 2026-08-31 00:00:45 | 41.83717 | 9.16742 | 112° | 66km/h | 12464m | 3.1m/s | 0°C | 0% | 0hPa | 0V | 00:00:00 | 00:00:00 | 00:00:00 | |
| RDZBGO | 2026-08-31 00:00:27 | 41.83856 | 9.16384 | 117° | 69km/h | 12385m | 3.3m/s | 0°C | 0% | 0hPa | 0V | 00:00:00 | 00:00:00 | 00:00:00 | |
| RDZBGO | 2026-08-30 23:59:42 | 41.84157 | 9.15702 | 118° | 58km/h | 12240m | 4.7m/s | 0°C | 0% | 0hPa | 0V | 00:00:00 | 00:00:00 | 00:00:00 | |
| RDZBGO | 2026-08-30 23:59:21 | 41.84312 | 9.15351 | 127° | 58km/h | 12164m | 3.4m/s | 0°C | 0% | 0hPa | 0V | 00:00:00 | 00:00:00 | 00:00:00 | |
| RDZBGO | 2026-08-30 23:58:59 | 41.84484 | 9.14976 | 131° | 58km/h | 12091m | 3.6m/s | 0°C | 0% | 0hPa | 0V | 00:00:00 | 00:00:00 | 00:00:00 | |
| RDZBGO | 2026-08-30 23:58:39 | 41.84651 | 9.14634 | 126° | 58km/h | 12017m | 3.5m/s | 0°C | 0% | 0hPa | 0V | 00:00:00 | 00:00:00 | 00:00:00 | |
| RDZBGO | 2026-08-30 23:57:54 | 41.85032 | 9.13890 | 127° | 58km/h | 11863m | 4.0m/s | 0°C | 0% | 0hPa | 0V | 00:00:00 | 00:00:00 | 00:00:00 | |
| RDZBGO | 2026-08-30 23:57:11 | 41.85384 | 9.13212 | 120° | 53km/h | 11710m | 3.7m/s | 0°C | 0% | 0hPa | 0V | 00:00:00 | 00:00:00 | 00:00:00 | |
| RDZBGO | 2026-08-30 23:56:51 | 41.85528 | 9.12913 | 126° | 51km/h | 11642m | 3.8m/s | 0°C | 0% | 0hPa | 0V | 00:00:00 | 00:00:00 | 00:00:00 | |
| RDZBGO | 2026-08-30 23:56:07 | 41.85782 | 9.12244 | 113° | 51km/h | 11489m | 4.0m/s | 0°C | 0% | 0hPa | 0V | 00:00:00 | 00:00:00 | 00:00:00 | |
| RDZBGO | 2026-08-30 23:55:47 | 41.85898 | 9.11923 | 119° | 53km/h | 11418m | 4.5m/s | 0°C | 0% | 0hPa | 0V | 00:00:00 | 00:00:00 | 00:00:00 | |
| RDZBGO | 2026-08-30 23:55:25 | 41.86025 | 9.11580 | 118° | 47km/h | 11337m | 4.2m/s | 0°C | 0% | 0hPa | 0V | 00:00:00 | 00:00:00 | 00:00:00 | |
| RDZBGO | 2026-08-30 23:55:05 | 41.86135 | 9.11291 | 119° | 46km/h | 11261m | 4.0m/s | 0°C | 0% | 0hPa | 0V | 00:00:00 | 00:00:00 | 00:00:00 | |
| RDZBGO | 2026-08-30 23:54:44 | 41.86243 | 9.10986 | 124° | 51km/h | 11179m | 4.6m/s | 0°C | 0% | 0hPa | 0V | 00:00:00 | 00:00:00 | 00:00:00 | |
| RDZBGO | 2026-08-30 23:54:23 | 41.86362 | 9.10680 | 120° | 47km/h | 11098m | 4.5m/s | 0°C | 0% | 0hPa | 0V | 00:00:00 | 00:00:00 | 00:00:00 | |
| RDZBGO | 2026-08-30 23:54:03 | 41.86475 | 9.10400 | 120° | 44km/h | 11020m | 4.5m/s | 0°C | 0% | 0hPa | 0V | 00:00:00 | 00:00:00 | 00:00:00 | |
| RDZBGO | 2026-08-30 23:53:41 | 41.86584 | 9.10117 | 124° | 46km/h | 10927m | 4.7m/s | 0°C | 0% | 0hPa | 0V | 00:00:00 | 00:00:00 | 00:00:00 | |
| RDZBGO | 2026-08-30 23:53:20 | 41.86671 | 9.09865 | 124° | 38km/h | 10844m | 3.7m/s | 0°C | 0% | 0hPa | 0V | 00:00:00 | 00:00:00 | 00:00:00 | |
| RDZBGO | 2026-08-30 23:52:59 | 41.86758 | 9.09610 | 128° | 27km/h | 10756m | 3.8m/s | 0°C | 0% | 0hPa | 0V | 00:00:00 | 00:00:00 | 00:00:00 | |
| RDZBGO | 2026-08-30 23:52:16 | 41.86923 | 9.09077 | 112° | 40km/h | 10577m | 4.3m/s | 0°C | 0% | 0hPa | 0V | 00:00:00 | 00:00:00 | 00:00:00 | |
| RDZBGO | 2026-08-30 23:51:55 | 41.87025 | 9.08828 | 109° | 38km/h | 10489m | 4.6m/s | 0°C | 0% | 0hPa | 0V | 00:00:00 | 00:00:00 | 00:00:00 | |
| RDZBGO | 2026-08-30 23:51:35 | 41.87115 | 9.08592 | 108° | 47km/h | 10401m | 4.7m/s | 0°C | 0% | 0hPa | 0V | 00:00:00 | 00:00:00 | 00:00:00 | |
| RDZBGO | 2026-08-30 23:51:14 | 41.87203 | 9.08342 | 121° | 40km/h | 10305m | 4.6m/s | 0°C | 0% | 0hPa | 0V | 00:00:00 | 00:00:00 | 00:00:00 | |
| RDZBGO | 2026-08-30 23:50:48 | 41.87336 | 9.07979 | 117° | 46km/h | 10191m | 4.8m/s | 0°C | 0% | 0hPa | 0V | 00:00:00 | 00:00:00 | 00:00:00 | |
| RDZBGO | 2026-08-30 23:50:22 | 41.87463 | 9.07611 | 109° | 42km/h | 10077m | 4.1m/s | 0°C | 0% | 0hPa | 0V | 00:00:00 | 00:00:00 | 00:00:00 | |
| RDZBGO | 2026-08-30 23:49:59 | 41.87566 | 9.07275 | 110° | 53km/h | 9976m | 3.5m/s | 0°C | 0% | 0hPa | 0V | 00:00:00 | 00:00:00 | 00:00:00 | |
| RDZBGO | 2026-08-30 23:49:36 | 41.87662 | 9.06950 | 110° | 53km/h | 9877m | 4.1m/s | 0°C | 0% | 0hPa | 0V | 00:00:00 | 00:00:00 | 00:00:00 | |
| RDZBGO | 2026-08-30 23:49:13 | 41.87754 | 9.06623 | 116° | 51km/h | 9782m | 3.8m/s | 0°C | 0% | 0hPa | 0V | 00:00:00 | 00:00:00 | 00:00:00 | |
| RDZBGO | 2026-08-30 23:48:53 | 41.87828 | 9.06351 | 116° | 44km/h | 9697m | 5.2m/s | 0°C | 0% | 0hPa | 0V | 00:00:00 | 00:00:00 | 00:00:00 | |
| RDZBGO | 2026-08-30 23:48:32 | 41.87910 | 9.06060 | 113° | 47km/h | 9609m | 5.2m/s | 0°C | 0% | 0hPa | 0V | 00:00:00 | 00:00:00 | 00:00:00 | |
| RDZBGO | 2026-08-30 23:48:11 | 41.87986 | 9.05740 | 106° | 49km/h | 9519m | 4.1m/s | 0°C | 0% | 0hPa | 0V | 00:00:00 | 00:00:00 | 00:00:00 | |
| RDZBGO | 2026-08-30 23:47:51 | 41.88070 | 9.05411 | 112° | 58km/h | 9438m | 3.6m/s | 0°C | 0% | 0hPa | 0V | 00:00:00 | 00:00:00 | 00:00:00 | |
| RDZBGO | 2026-08-30 23:47:30 | 41.88160 | 9.05052 | 109° | 62km/h | 9354m | 4.0m/s | 0°C | 0% | 0hPa | 0V | 00:00:00 | 00:00:00 | 00:00:00 | |
| RDZBGO | 2026-08-30 23:47:09 | 41.88247 | 9.04679 | 110° | 62km/h | 9272m | 4.1m/s | 0°C | 0% | 0hPa | 0V | 00:00:00 | 00:00:00 | 00:00:00 | |
| RDZBGO | 2026-08-30 23:46:49 | 41.88330 | 9.04332 | 107° | 42km/h | 9194m | 3.2m/s | 0°C | 0% | 0hPa | 0V | 00:00:00 | 00:00:00 | 00:00:00 | |
| RDZBGO | 2026-08-30 23:46:28 | 41.88413 | 9.03955 | 107° | 53km/h | 9115m | 4.1m/s | 0°C | 0% | 0hPa | 0V | 00:00:00 | 00:00:00 | 00:00:00 | |
| RDZBGO | 2026-08-30 23:46:08 | 41.88508 | 9.03598 | 116° | 60km/h | 9041m | 3.4m/s | 0°C | 0% | 0hPa | 0V | 00:00:00 | 00:00:00 | 00:00:00 | |
| RDZBGO | 2026-08-30 23:45:47 | 41.88606 | 9.03232 | 121° | 58km/h | 8961m | 3.0m/s | 0°C | 0% | 0hPa | 0V | 00:00:00 | 00:00:00 | 00:00:00 | |
| RDZBGO | 2026-08-30 23:45:26 | 41.88724 | 9.02834 | 110° | 58km/h | 8888m | 3.6m/s | 0°C | 0% | 0hPa | 0V | 00:00:00 | 00:00:00 | 00:00:00 | |
| RDZBGO | 2026-08-30 23:45:05 | 41.88840 | 9.02440 | 106° | 66km/h | 8813m | 3.0m/s | 0°C | 0% | 0hPa | 0V | 00:00:00 | 00:00:00 | 00:00:00 | |
| RDZBGO | 2026-08-30 23:44:45 | 41.88948 | 9.02065 | 111° | 51km/h | 8743m | 2.5m/s | 0°C | 0% | 0hPa | 0V | 00:00:00 | 00:00:00 | 00:00:00 | |
| RDZBGO | 2026-08-30 23:44:24 | 41.89054 | 9.01682 | 107° | 53km/h | 8662m | 3.9m/s | 0°C | 0% | 0hPa | 0V | 00:00:00 | 00:00:00 | 00:00:00 | |
| RDZBGO | 2026-08-30 23:44:04 | 41.89153 | 9.01319 | 112° | 53km/h | 8586m | 3.6m/s | 0°C | 0% | 0hPa | 0V | 00:00:00 | 00:00:00 | 00:00:00 | |
| RDZBGO | 2026-08-30 23:43:44 | 41.89258 | 9.00957 | 99° | 53km/h | 8493m | 2.1m/s | 0°C | 0% | 0hPa | 0V | 00:00:00 | 00:00:00 | 00:00:00 | |
| RDZBGO | 2026-08-30 23:43:24 | 41.89328 | 9.00609 | 110° | 51km/h | 8412m | 4.2m/s | 0°C | 0% | 0hPa | 0V | 00:00:00 | 00:00:00 | 00:00:00 | |
| RDZBGO | 2026-08-30 23:43:04 | 41.89403 | 9.00274 | 91° | 49km/h | 8321m | 3.5m/s | 0°C | 0% | 0hPa | 0V | 00:00:00 | 00:00:00 | 00:00:00 | |
| RDZBGO | 2026-08-30 23:42:43 | 41.89468 | 8.99930 | 114° | 64km/h | 8246m | 3.7m/s | 0°C | 0% | 0hPa | 0V | 00:00:00 | 00:00:00 | 00:00:00 | |
| RDZBGO | 2026-08-30 23:42:02 | 41.89585 | 8.99156 | 109° | 53km/h | 8106m | 2.0m/s | 0°C | 0% | 0hPa | 0V | 00:00:00 | 00:00:00 | 00:00:00 | |
| RDZBGO | 2026-08-30 23:41:41 | 41.89623 | 8.98745 | 93° | 62km/h | 8034m | 3.3m/s | 0°C | 0% | 0hPa | 0V | 00:00:00 | 00:00:00 | 00:00:00 | |
| RDZBGO | 2026-08-30 23:41:21 | 41.89643 | 8.98340 | 99° | 60km/h | 7965m | 3.4m/s | 0°C | 0% | 0hPa | 0V | 00:00:00 | 00:00:00 | 00:00:00 | |
| RDZBGO | 2026-08-30 23:41:01 | 41.89660 | 8.97934 | 87° | 55km/h | 7895m | 3.1m/s | 0°C | 0% | 0hPa | 0V | 00:00:00 | 00:00:00 | 00:00:00 | |
| RDZBGO | 2026-08-30 23:40:40 | 41.89681 | 8.97501 | 91° | 51km/h | 7821m | 4.2m/s | 0°C | 0% | 0hPa | 0V | 00:00:00 | 00:00:00 | 00:00:00 | |
| RDZBGO | 2026-08-30 23:40:19 | 41.89704 | 8.97081 | 101° | 66km/h | 7746m | 3.1m/s | 0°C | 0% | 0hPa | 0V | 00:00:00 | 00:00:00 | 00:00:00 | |
| RDZBGO | 2026-08-30 23:39:58 | 41.89737 | 8.96644 | 94° | 73km/h | 7668m | 3.3m/s | 0°C | 0% | 0hPa | 0V | 00:00:00 | 00:00:00 | 00:00:00 | |
| RDZBGO | 2026-08-30 23:39:38 | 41.89763 | 8.96214 | 89° | 57km/h | 7593m | 4.2m/s | 0°C | 0% | 0hPa | 0V | 00:00:00 | 00:00:00 | 00:00:00 | |
| RDZBGO | 2026-08-30 23:39:18 | 41.89791 | 8.95781 | 102° | 66km/h | 7517m | 3.5m/s | 0°C | 0% | 0hPa | 0V | 00:00:00 | 00:00:00 | 00:00:00 | |
| RDZBGO | 2026-08-30 23:38:57 | 41.89822 | 8.95320 | 104° | 71km/h | 7439m | 3.2m/s | 0°C | 0% | 0hPa | 0V | 00:00:00 | 00:00:00 | 00:00:00 | |
| RDZBGO | 2026-08-30 23:38:37 | 41.89849 | 8.94878 | 86° | 66km/h | 7367m | 3.0m/s | 0°C | 0% | 0hPa | 0V | 00:00:00 | 00:00:00 | 00:00:00 | |
| RDZBGO | 2026-08-30 23:38:16 | 41.89880 | 8.94412 | 89° | 66km/h | 7286m | 3.5m/s | 0°C | 0% | 0hPa | 0V | 00:00:00 | 00:00:00 | 00:00:00 | |
| RDZBGO | 2026-08-30 23:37:56 | 41.89909 | 8.93968 | 100° | 69km/h | 7210m | 3.5m/s | 0°C | 0% | 0hPa | 0V | 00:00:00 | 00:00:00 | 00:00:00 | |
| RDZBGO | 2026-08-30 23:37:36 | 41.89943 | 8.93532 | 92° | 66km/h | 7129m | 3.6m/s | 0°C | 0% | 0hPa | 0V | 00:00:00 | 00:00:00 | 00:00:00 | |
| RDZBGO | 2026-08-30 23:37:15 | 41.89964 | 8.93073 | 100° | 69km/h | 7044m | 5.0m/s | 0°C | 0% | 0hPa | 0V | 00:00:00 | 00:00:00 | 00:00:00 | |
| RDZBGO | 2026-08-30 23:36:53 | 41.89986 | 8.92609 | 96° | 55km/h | 6930m | 5.3m/s | 0°C | 0% | 0hPa | 0V | 00:00:00 | 00:00:00 | 00:00:00 | |
| RDZBGO | 2026-08-30 23:36:33 | 41.89997 | 8.92186 | 104° | 73km/h | 6832m | 3.8m/s | 0°C | 0% | 0hPa | 0V | 00:00:00 | 00:00:00 | 00:00:00 | |
| RDZBGO | 2026-08-30 23:36:11 | 41.90014 | 8.91706 | 92° | 60km/h | 6721m | 3.7m/s | 0°C | 0% | 0hPa | 0V | 00:00:00 | 00:00:00 | 00:00:00 |